sensor_id;sensor_type;location;lat;lon;timestamp;pressure;altitude;pressure_sealevel;temperature;humidity
32197;BME280;18697;42.770;23.400;2022-12-11T00:00:37;93593.34;;;13.00;87.04
32197;BME280;18697;42.770;23.400;2022-12-11T00:03:03;93616.94;;;12.99;86.58
32197;BME280;18697;42.770;23.400;2022-12-11T00:05:29;93581.16;;;13.03;86.14
32197;BME280;18697;42.770;23.400;2022-12-11T00:07:54;93568.13;;;13.11;85.52
32197;BME280;18697;42.770;23.400;2022-12-11T00:10:19;93541.69;;;13.18;85.55
32197;BME280;18697;42.770;23.400;2022-12-11T00:12:44;93577.69;;;13.16;85.03
32197;BME280;18697;42.770;23.400;2022-12-11T00:15:10;93566.47;;;13.22;84.74
32197;BME280;18697;42.770;23.400;2022-12-11T00:17:35;93593.06;;;13.23;84.63
32197;BME280;18697;42.770;23.400;2022-12-11T00:20:01;93557.78;;;13.25;84.67
32197;BME280;18697;42.770;23.400;2022-12-11T00:22:28;93586.56;;;13.33;84.73
32197;BME280;18697;42.770;23.400;2022-12-11T00:24:54;93603.50;;;13.35;85.37
32197;BME280;18697;42.770;23.400;2022-12-11T00:27:19;93565.22;;;13.36;84.88
32197;BME280;18697;42.770;23.400;2022-12-11T00:29:44;93621.41;;;13.40;85.44
32197;BME280;18697;42.770;23.400;2022-12-11T00:32:10;93611.81;;;13.03;86.94
32197;BME280;18697;42.770;23.400;2022-12-11T00:34:35;93572.47;;;13.26;85.06
32197;BME280;18697;42.770;23.400;2022-12-11T00:37:00;93560.81;;;13.27;84.94
32197;BME280;18697;42.770;23.400;2022-12-11T00:39:26;93562.53;;;13.30;85.18
32197;BME280;18697;42.770;23.400;2022-12-11T00:41:51;93578.66;;;13.19;85.98
32197;BME280;18697;42.770;23.400;2022-12-11T00:44:16;93557.13;;;13.19;86.70
32197;BME280;18697;42.770;23.400;2022-12-11T00:46:42;93561.94;;;13.19;86.16
32197;BME280;18697;42.770;23.400;2022-12-11T00:49:07;93564.97;;;13.21;86.39
32197;BME280;18697;42.770;23.400;2022-12-11T00:51:32;93584.69;;;13.23;86.31
32197;BME280;18697;42.770;23.400;2022-12-11T00:53:57;93580.19;;;13.20;87.07
32197;BME280;18697;42.770;23.400;2022-12-11T00:56:23;93570.53;;;13.21;86.07
32197;BME280;18697;42.770;23.400;2022-12-11T00:58:49;93542.66;;;13.21;86.33
32197;BME280;18697;42.770;23.400;2022-12-11T01:01:18;93553.88;;;13.15;86.11
32197;BME280;18697;42.770;23.400;2022-12-11T01:03:44;93501.66;;;13.15;86.47
32197;BME280;18697;42.770;23.400;2022-12-11T01:06:18;93575.06;;;13.05;87.35
32197;BME280;18697;42.770;23.400;2022-12-11T01:08:45;93615.41;;;12.79;89.25
32197;BME280;18697;42.770;23.400;2022-12-11T01:11:12;93527.41;;;12.90;89.38
32197;BME280;18697;42.770;23.400;2022-12-11T01:13:39;93540.19;;;12.98;88.39
32197;BME280;18697;42.770;23.400;2022-12-11T01:16:10;93590.72;;;12.89;88.15
32197;BME280;18697;42.770;23.400;2022-12-11T01:18:36;93570.75;;;13.04;88.37
32197;BME280;18697;42.770;23.400;2022-12-11T01:21:10;93551.91;;;13.10;86.74
32197;BME280;18697;42.770;23.400;2022-12-11T01:23:36;93563.97;;;13.18;86.46
32197;BME280;18697;42.770;23.400;2022-12-11T01:26:07;93627.63;;;13.14;86.90
32197;BME280;18697;42.770;23.400;2022-12-11T01:28:33;93638.47;;;12.80;88.67
32197;BME280;18697;42.770;23.400;2022-12-11T01:30:58;93586.97;;;12.87;89.36
32197;BME280;18697;42.770;23.400;2022-12-11T01:33:24;93582.06;;;12.93;88.95
32197;BME280;18697;42.770;23.400;2022-12-11T01:35:49;93598.09;;;12.87;89.82
32197;BME280;18697;42.770;23.400;2022-12-11T01:38:15;93592.56;;;12.49;92.17
32197;BME280;18697;42.770;23.400;2022-12-11T01:40:44;93599.13;;;12.27;95.40
32197;BME280;18697;42.770;23.400;2022-12-11T01:43:10;93541.69;;;12.48;95.09
32197;BME280;18697;42.770;23.400;2022-12-11T01:45:39;93582.59;;;12.35;95.28
32197;BME280;18697;42.770;23.400;2022-12-11T01:48:08;93548.59;;;12.42;94.44
32197;BME280;18697;42.770;23.400;2022-12-11T01:50:40;93578.56;;;12.55;94.98
32197;BME280;18697;42.770;23.400;2022-12-11T01:53:09;93557.59;;;12.67;94.91
32197;BME280;18697;42.770;23.400;2022-12-11T01:55:37;93545.56;;;12.77;89.50
32197;BME280;18697;42.770;23.400;2022-12-11T01:58:04;93585.00;;;12.63;90.48
32197;BME280;18697;42.770;23.400;2022-12-11T02:00:30;93584.72;;;12.85;87.95
32197;BME280;18697;42.770;23.400;2022-12-11T02:02:55;93618.44;;;13.00;89.98
32197;BME280;18697;42.770;23.400;2022-12-11T02:05:21;93591.19;;;12.74;89.58
32197;BME280;18697;42.770;23.400;2022-12-11T02:07:53;93583.19;;;13.03;87.27
32197;BME280;18697;42.770;23.400;2022-12-11T02:10:23;93591.94;;;14.42;72.50
32197;BME280;18697;42.770;23.400;2022-12-11T02:12:59;93546.59;;;14.63;73.56
32197;BME280;18697;42.770;23.400;2022-12-11T02:15:47;93588.56;;;14.84;67.20
32197;BME280;18697;42.770;23.400;2022-12-11T02:20:54;93568.94;;;14.97;68.06
32197;BME280;18697;42.770;23.400;2022-12-11T02:29:26;93514.75;;;15.41;60.08
32197;BME280;18697;42.770;23.400;2022-12-11T02:32:00;93496.47;;;15.61;60.41
32197;BME280;18697;42.770;23.400;2022-12-11T02:34:34;93491.22;;;15.86;58.15
32197;BME280;18697;42.770;23.400;2022-12-11T02:37:05;93475.03;;;15.92;58.68
32197;BME280;18697;42.770;23.400;2022-12-11T02:39:35;93468.53;;;16.33;57.45
32197;BME280;18697;42.770;23.400;2022-12-11T02:42:03;93476.31;;;16.20;58.51
32197;BME280;18697;42.770;23.400;2022-12-11T02:44:31;93482.38;;;16.47;56.56
32197;BME280;18697;42.770;23.400;2022-12-11T02:46:59;93500.09;;;16.34;61.76
32197;BME280;18697;42.770;23.400;2022-12-11T02:49:25;93485.91;;;16.03;65.22
32197;BME280;18697;42.770;23.400;2022-12-11T02:51:53;93463.84;;;15.64;68.38
32197;BME280;18697;42.770;23.400;2022-12-11T02:54:24;93488.03;;;15.33;69.82
32197;BME280;18697;42.770;23.400;2022-12-11T02:57:02;93473.63;;;15.08;70.83
32197;BME280;18697;42.770;23.400;2022-12-11T02:59:36;93478.34;;;14.92;69.67
32197;BME280;18697;42.770;23.400;2022-12-11T03:02:03;93488.75;;;14.92;73.10
32197;BME280;18697;42.770;23.400;2022-12-11T03:04:29;93496.53;;;14.86;72.24
32197;BME280;18697;42.770;23.400;2022-12-11T03:06:57;93489.38;;;14.77;74.93
32197;BME280;18697;42.770;23.400;2022-12-11T03:09:26;93486.63;;;14.64;73.87
32197;BME280;18697;42.770;23.400;2022-12-11T03:11:52;93494.28;;;14.50;76.17
32197;BME280;18697;42.770;23.400;2022-12-11T03:14:18;93483.00;;;14.56;71.10
32197;BME280;18697;42.770;23.400;2022-12-11T03:16:50;93483.50;;;14.88;70.03
32197;BME280;18697;42.770;23.400;2022-12-11T03:24:49;93510.78;;;14.95;68.28
32197;BME280;18697;42.770;23.400;2022-12-11T03:27:35;93508.81;;;15.03;68.24
32197;BME280;18697;42.770;23.400;2022-12-11T03:30:11;93535.13;;;15.08;68.14
32197;BME280;18697;42.770;23.400;2022-12-11T03:33:09;93525.75;;;15.19;67.90
32197;BME280;18697;42.770;23.400;2022-12-11T03:35:51;93529.97;;;15.12;70.68
32197;BME280;18697;42.770;23.400;2022-12-11T03:38:23;93546.03;;;14.98;71.64
32197;BME280;18697;42.770;23.400;2022-12-11T03:40:53;93552.22;;;14.84;74.22
32197;BME280;18697;42.770;23.400;2022-12-11T03:43:21;93553.56;;;14.69;76.91
32197;BME280;18697;42.770;23.400;2022-12-11T03:45:48;93558.38;;;14.69;77.41
32197;BME280;18697;42.770;23.400;2022-12-11T03:48:15;93569.25;;;14.72;78.28
32197;BME280;18697;42.770;23.400;2022-12-11T03:50:42;93562.34;;;14.73;79.17
32197;BME280;18697;42.770;23.400;2022-12-11T03:53:07;93569.44;;;14.74;78.44
32197;BME280;18697;42.770;23.400;2022-12-11T03:55:35;93571.38;;;14.79;78.75
32197;BME280;18697;42.770;23.400;2022-12-11T03:58:02;93572.13;;;14.80;78.91
32197;BME280;18697;42.770;23.400;2022-12-11T04:00:28;93587.84;;;14.57;80.33
32197;BME280;18697;42.770;23.400;2022-12-11T04:02:53;93587.41;;;14.66;79.51
32197;BME280;18697;42.770;23.400;2022-12-11T04:05:38;93575.47;;;14.65;78.98
32197;BME280;18697;42.770;23.400;2022-12-11T04:08:04;93583.53;;;14.69;79.32
32197;BME280;18697;42.770;23.400;2022-12-11T04:10:29;93569.25;;;14.72;80.19
32197;BME280;18697;42.770;23.400;2022-12-11T04:12:55;93560.44;;;14.68;81.08
32197;BME280;18697;42.770;23.400;2022-12-11T04:15:20;93543.34;;;14.72;80.78
32197;BME280;18697;42.770;23.400;2022-12-11T04:17:46;93556.56;;;14.71;81.30
32197;BME280;18697;42.770;23.400;2022-12-11T04:20:30;93544.09;;;14.72;81.29
32197;BME280;18697;42.770;23.400;2022-12-11T04:23:16;93543.34;;;14.72;80.83
32197;BME280;18697;42.770;23.400;2022-12-11T04:26:11;93551.84;;;14.66;80.67
32197;BME280;18697;42.770;23.400;2022-12-11T04:28:38;93562.06;;;14.51;78.50
32197;BME280;18697;42.770;23.400;2022-12-11T04:31:04;93555.19;;;14.52;73.29
32197;BME280;18697;42.770;23.400;2022-12-11T04:33:30;93548.31;;;14.66;79.10
32197;BME280;18697;42.770;23.400;2022-12-11T04:35:59;93559.16;;;14.56;76.02
32197;BME280;18697;42.770;23.400;2022-12-11T04:38:25;93576.66;;;14.70;75.11
32197;BME280;18697;42.770;23.400;2022-12-11T04:41:01;93581.72;;;14.71;76.92
32197;BME280;18697;42.770;23.400;2022-12-11T04:43:27;93592.22;;;14.78;77.63
32197;BME280;18697;42.770;23.400;2022-12-11T04:46:06;93597.81;;;14.78;76.54
32197;BME280;18697;42.770;23.400;2022-12-11T04:48:32;93590.09;;;14.71;78.60
32197;BME280;18697;42.770;23.400;2022-12-11T04:50:57;93610.06;;;14.75;80.01
32197;BME280;18697;42.770;23.400;2022-12-11T04:53:23;93598.03;;;14.67;80.22
32197;BME280;18697;42.770;23.400;2022-12-11T04:55:48;93603.84;;;14.69;80.70
32197;BME280;18697;42.770;23.400;2022-12-11T04:58:14;93609.34;;;14.62;80.37
32197;BME280;18697;42.770;23.400;2022-12-11T05:00:40;93608.59;;;14.61;79.03
32197;BME280;18697;42.770;23.400;2022-12-11T05:03:05;93625.56;;;14.63;77.99
32197;BME280;18697;42.770;23.400;2022-12-11T05:05:31;93622.75;;;14.63;77.21
32197;BME280;18697;42.770;23.400;2022-12-11T05:07:56;93618.47;;;14.62;77.35
32197;BME280;18697;42.770;23.400;2022-12-11T05:10:21;93619.97;;;14.63;74.13
32197;BME280;18697;42.770;23.400;2022-12-11T05:12:46;93612.88;;;14.62;71.48
32197;BME280;18697;42.770;23.400;2022-12-11T05:15:12;93606.00;;;14.63;72.35
32197;BME280;18697;42.770;23.400;2022-12-11T05:17:37;93620.94;;;14.66;72.41
32197;BME280;18697;42.770;23.400;2022-12-11T05:20:03;93632.66;;;14.64;72.13
32197;BME280;18697;42.770;23.400;2022-12-11T05:22:29;93637.16;;;14.67;72.39
32197;BME280;18697;42.770;23.400;2022-12-11T05:24:55;93640.81;;;14.62;73.35
32197;BME280;18697;42.770;23.400;2022-12-11T05:27:20;93647.91;;;14.63;71.14
32197;BME280;18697;42.770;23.400;2022-12-11T05:29:46;93638.56;;;14.61;71.42
32197;BME280;18697;42.770;23.400;2022-12-11T05:32:11;93626.84;;;14.62;70.60
32197;BME280;18697;42.770;23.400;2022-12-11T05:34:36;93635.66;;;14.66;71.89
32197;BME280;18697;42.770;23.400;2022-12-11T05:37:02;93625.56;;;14.63;72.38
32197;BME280;18697;42.770;23.400;2022-12-11T05:39:27;93634.25;;;14.60;73.04
32197;BME280;18697;42.770;23.400;2022-12-11T05:41:53;93638.78;;;14.63;74.75
32197;BME280;18697;42.770;23.400;2022-12-11T05:44:18;93635.88;;;14.55;76.12
32197;BME280;18697;42.770;23.400;2022-12-11T05:46:43;93631.38;;;14.52;75.78
32197;BME280;18697;42.770;23.400;2022-12-11T05:49:09;93629.84;;;14.51;76.21
32197;BME280;18697;42.770;23.400;2022-12-11T05:51:34;93627.72;;;14.44;75.91
32197;BME280;18697;42.770;23.400;2022-12-11T05:54:00;93630.03;;;14.40;76.42
32197;BME280;18697;42.770;23.400;2022-12-11T05:56:26;93624.47;;;14.40;77.88
32197;BME280;18697;42.770;23.400;2022-12-11T05:58:53;93622.53;;;14.35;77.70
32197;BME280;18697;42.770;23.400;2022-12-11T06:01:24;93613.41;;;14.34;77.66
32197;BME280;18697;42.770;23.400;2022-12-11T06:03:50;93616.94;;;14.35;77.48
32197;BME280;18697;42.770;23.400;2022-12-11T06:06:16;93610.06;;;14.36;76.62
32197;BME280;18697;42.770;23.400;2022-12-11T06:08:41;93604.69;;;14.38;76.20
32197;BME280;18697;42.770;23.400;2022-12-11T06:11:07;93616.31;;;14.42;76.31
32197;BME280;18697;42.770;23.400;2022-12-11T06:13:32;93609.44;;;14.43;76.87
32197;BME280;18697;42.770;23.400;2022-12-11T06:16:05;93604.28;;;14.34;77.08
32197;BME280;18697;42.770;23.400;2022-12-11T06:18:34;93611.78;;;14.39;78.14
32197;BME280;18697;42.770;23.400;2022-12-11T06:21:00;93622.41;;;14.40;78.91
32197;BME280;18697;42.770;23.400;2022-12-11T06:23:25;93628.47;;;14.44;78.24
32197;BME280;18697;42.770;23.400;2022-12-11T06:25:51;93629.66;;;14.49;76.48
32197;BME280;18697;42.770;23.400;2022-12-11T06:28:16;93633.19;;;14.50;78.37
32197;BME280;18697;42.770;23.400;2022-12-11T06:30:41;93628.00;;;14.40;78.75
32197;BME280;18697;42.770;23.400;2022-12-11T06:33:07;93639.84;;;14.46;76.44
32197;BME280;18697;42.770;23.400;2022-12-11T06:35:32;93630.41;;;14.50;77.14
32197;BME280;18697;42.770;23.400;2022-12-11T06:37:58;93634.91;;;14.53;76.19
32197;BME280;18697;42.770;23.400;2022-12-11T06:40:23;93632.53;;;14.57;75.58
32197;BME280;18697;42.770;23.400;2022-12-11T06:42:49;93638.56;;;14.61;76.24
32197;BME280;18697;42.770;23.400;2022-12-11T06:45:14;93628.13;;;14.61;77.70
32197;BME280;18697;42.770;23.400;2022-12-11T06:47:39;93620.09;;;14.58;78.52
32197;BME280;18697;42.770;23.400;2022-12-11T06:50:05;93612.44;;;14.58;79.72
32197;BME280;18697;42.770;23.400;2022-12-11T06:52:30;93626.94;;;14.57;79.35
32197;BME280;18697;42.770;23.400;2022-12-11T06:54:55;93626.63;;;14.60;79.75
32197;BME280;18697;42.770;23.400;2022-12-11T06:57:21;93635.97;;;14.63;79.64
32197;BME280;18697;42.770;23.400;2022-12-11T06:59:47;93621.91;;;14.68;79.04
32197;BME280;18697;42.770;23.400;2022-12-11T07:02:17;93642.84;;;14.75;77.93
32197;BME280;18697;42.770;23.400;2022-12-11T07:04:43;93624.25;;;14.77;77.83
32197;BME280;18697;42.770;23.400;2022-12-11T07:07:09;93635.84;;;14.82;78.05
32197;BME280;18697;42.770;23.400;2022-12-11T07:09:36;93640.09;;;14.96;78.31
32197;BME280;18697;42.770;23.400;2022-12-11T07:12:02;93655.69;;;14.91;78.30
32197;BME280;18697;42.770;23.400;2022-12-11T07:14:28;93642.03;;;15.01;77.01
32197;BME280;18697;42.770;23.400;2022-12-11T07:16:55;93647.50;;;15.06;75.67
32197;BME280;18697;42.770;23.400;2022-12-11T07:19:20;93649.66;;;15.00;76.75
32197;BME280;18697;42.770;23.400;2022-12-11T07:21:46;93647.28;;;15.04;78.02
32197;BME280;18697;42.770;23.400;2022-12-11T07:24:11;93653.22;;;15.01;77.82
32197;BME280;18697;42.770;23.400;2022-12-11T07:26:36;93648.38;;;14.88;76.31
32197;BME280;18697;42.770;23.400;2022-12-11T07:29:02;93660.97;;;14.95;72.46
32197;BME280;18697;42.770;23.400;2022-12-11T07:31:28;93676.97;;;15.07;72.55
32197;BME280;18697;42.770;23.400;2022-12-11T07:33:59;93679.41;;;15.11;73.98
32197;BME280;18697;42.770;23.400;2022-12-11T07:36:25;93682.84;;;15.17;74.77
32197;BME280;18697;42.770;23.400;2022-12-11T07:38:52;93684.38;;;15.05;74.69
32197;BME280;18697;42.770;23.400;2022-12-11T07:41:17;93692.94;;;15.20;72.10
32197;BME280;18697;42.770;23.400;2022-12-11T07:43:43;93692.28;;;15.27;71.13
32197;BME280;18697;42.770;23.400;2022-12-11T07:46:12;93698.44;;;15.26;71.49
32197;BME280;18697;42.770;23.400;2022-12-11T07:48:39;93696.06;;;15.30;71.62
32197;BME280;18697;42.770;23.400;2022-12-11T07:53:39;93707.53;;;15.39;71.69
32197;BME280;18697;42.770;23.400;2022-12-11T07:56:05;93694.63;;;15.36;72.92
32197;BME280;18697;42.770;23.400;2022-12-11T07:58:30;93704.84;;;15.47;72.07
32197;BME280;18697;42.770;23.400;2022-12-11T08:00:56;93713.22;;;15.47;71.93
32197;BME280;18697;42.770;23.400;2022-12-11T08:03:22;93710.00;;;15.43;71.79
32197;BME280;18697;42.770;23.400;2022-12-11T08:05:48;93715.06;;;15.44;71.05
32197;BME280;18697;42.770;23.400;2022-12-11T08:08:14;93717.41;;;15.54;69.81
32197;BME280;18697;42.770;23.400;2022-12-11T08:10:40;93703.50;;;15.61;68.58
32197;BME280;18697;42.770;23.400;2022-12-11T08:13:05;93712.19;;;15.71;68.85
32197;BME280;18697;42.770;23.400;2022-12-11T08:15:31;93714.97;;;15.71;69.72
32197;BME280;18697;42.770;23.400;2022-12-11T08:17:56;93715.06;;;15.78;69.99
32197;BME280;18697;42.770;23.400;2022-12-11T08:20:22;93718.81;;;15.81;70.30
32197;BME280;18697;42.770;23.400;2022-12-11T08:22:47;93717.31;;;15.80;71.39
32197;BME280;18697;42.770;23.400;2022-12-11T08:25:12;93722.78;;;15.86;70.88
32197;BME280;18697;42.770;23.400;2022-12-11T08:27:38;93715.34;;;15.88;70.61
32197;BME280;18697;42.770;23.400;2022-12-11T08:30:03;93709.22;;;15.90;69.79
32197;BME280;18697;42.770;23.400;2022-12-11T08:32:29;93706.94;;;15.88;69.58
32197;BME280;18697;42.770;23.400;2022-12-11T08:34:54;93708.16;;;15.80;69.82
32197;BME280;18697;42.770;23.400;2022-12-11T08:37:19;93699.22;;;15.81;68.60
32197;BME280;18697;42.770;23.400;2022-12-11T08:39:45;93713.44;;;15.83;70.11
32197;BME280;18697;42.770;23.400;2022-12-11T08:42:11;93711.84;;;15.74;71.23
32197;BME280;18697;42.770;23.400;2022-12-11T08:44:36;93701.75;;;15.71;71.66
32197;BME280;18697;42.770;23.400;2022-12-11T08:47:02;93707.88;;;15.70;72.10
32197;BME280;18697;42.770;23.400;2022-12-11T08:49:27;93707.13;;;15.69;71.73
32197;BME280;18697;42.770;23.400;2022-12-11T08:51:53;93706.59;;;15.71;71.93
32197;BME280;18697;42.770;23.400;2022-12-11T08:54:18;93710.00;;;15.77;71.67
32197;BME280;18697;42.770;23.400;2022-12-11T08:56:44;93706.03;;;15.38;69.91
32197;BME280;18697;42.770;23.400;2022-12-11T08:59:09;93718.19;;;15.41;68.30
32197;BME280;18697;42.770;23.400;2022-12-11T09:01:35;93692.66;;;15.58;62.54
32197;BME280;18697;42.770;23.400;2022-12-11T09:04:00;93695.81;;;15.75;65.67
32197;BME280;18697;42.770;23.400;2022-12-11T09:06:27;93695.47;;;15.78;66.90
32197;BME280;18697;42.770;23.400;2022-12-11T09:08:54;93696.75;;;15.57;66.39
32197;BME280;18697;42.770;23.400;2022-12-11T09:11:26;93698.91;;;15.51;68.06
32197;BME280;18697;42.770;23.400;2022-12-11T09:13:52;93701.50;;;15.49;69.43
32197;BME280;18697;42.770;23.400;2022-12-11T09:16:20;93697.81;;;15.54;70.87
32197;BME280;18697;42.770;23.400;2022-12-11T09:18:47;93688.38;;;15.43;72.22
32197;BME280;18697;42.770;23.400;2022-12-11T09:21:15;93693.03;;;15.28;74.25
32197;BME280;18697;42.770;23.400;2022-12-11T09:23:41;93687.03;;;15.24;73.97
32197;BME280;18697;42.770;23.400;2022-12-11T09:26:09;93689.34;;;15.46;74.09
32197;BME280;18697;42.770;23.400;2022-12-11T09:28:36;93687.63;;;15.43;75.58
32197;BME280;18697;42.770;23.400;2022-12-11T09:31:08;93687.50;;;15.49;76.08
32197;BME280;18697;42.770;23.400;2022-12-11T09:33:33;93687.47;;;15.62;76.41
32197;BME280;18697;42.770;23.400;2022-12-11T09:36:00;93681.31;;;15.63;76.59
32197;BME280;18697;42.770;23.400;2022-12-11T09:38:25;93678.41;;;15.69;76.26
32197;BME280;18697;42.770;23.400;2022-12-11T09:40:51;93674.09;;;15.68;76.19
32197;BME280;18697;42.770;23.400;2022-12-11T09:46:04;93670.81;;;15.56;74.95
32197;BME280;18697;42.770;23.400;2022-12-11T09:48:31;93662.50;;;15.64;74.48
32197;BME280;18697;42.770;23.400;2022-12-11T09:51:02;93661.53;;;15.61;74.56
32197;BME280;18697;42.770;23.400;2022-12-11T09:53:33;93665.50;;;15.66;74.75
32197;BME280;18697;42.770;23.400;2022-12-11T09:56:06;93665.16;;;15.69;74.06
32197;BME280;18697;42.770;23.400;2022-12-11T10:12:20;93659.66;;;15.43;64.45
32197;BME280;18697;42.770;23.400;2022-12-11T10:15:13;93666.28;;;15.53;64.51
32197;BME280;18697;42.770;23.400;2022-12-11T10:17:41;93665.75;;;15.55;64.49
32197;BME280;18697;42.770;23.400;2022-12-11T10:22:34;93665.34;;;15.51;65.72
32197;BME280;18697;42.770;23.400;2022-12-11T10:25:03;93662.34;;;15.49;66.72
32197;BME280;18697;42.770;23.400;2022-12-11T10:27:32;93664.59;;;15.50;66.66
32197;BME280;18697;42.770;23.400;2022-12-11T10:30:12;93656.31;;;15.58;68.25
32197;BME280;18697;42.770;23.400;2022-12-11T10:35:38;93661.16;;;15.57;70.43
32197;BME280;18697;42.770;23.400;2022-12-11T10:38:15;93661.25;;;15.52;70.09
32197;BME280;18697;42.770;23.400;2022-12-11T10:43:43;93661.28;;;15.38;71.28
32197;BME280;18697;42.770;23.400;2022-12-11T10:51:18;93657.47;;;15.15;72.02
32197;BME280;18697;42.770;23.400;2022-12-11T10:53:52;93660.50;;;15.17;73.06
32197;BME280;18697;42.770;23.400;2022-12-11T10:56:31;93652.47;;;15.34;73.06
32197;BME280;18697;42.770;23.400;2022-12-11T10:58:58;93648.13;;;15.47;73.43
32197;BME280;18697;42.770;23.400;2022-12-11T11:01:26;93653.41;;;15.50;74.66
32197;BME280;18697;42.770;23.400;2022-12-11T11:04:06;93661.25;;;15.52;74.40
32197;BME280;18697;42.770;23.400;2022-12-11T11:06:38;93662.53;;;15.51;74.02
32197;BME280;18697;42.770;23.400;2022-12-11T11:09:03;93652.31;;;15.53;73.91
32197;BME280;18697;42.770;23.400;2022-12-11T11:11:30;93657.81;;;15.59;73.92
32197;BME280;18697;42.770;23.400;2022-12-11T11:14:12;93654.44;;;15.60;73.72
32197;BME280;18697;42.770;23.400;2022-12-11T11:16:39;93651.50;;;15.66;72.90
32197;BME280;18697;42.770;23.400;2022-12-11T11:19:05;93648.50;;;15.64;72.92
32197;BME280;18697;42.770;23.400;2022-12-11T11:21:32;93642.97;;;15.71;73.08
32197;BME280;18697;42.770;23.400;2022-12-11T11:23:58;93635.34;;;15.72;72.21
32197;BME280;18697;42.770;23.400;2022-12-11T11:26:24;93632.31;;;15.70;72.41
32197;BME280;18697;42.770;23.400;2022-12-11T11:28:53;93629.75;;;15.72;71.88
32197;BME280;18697;42.770;23.400;2022-12-11T11:31:20;93638.47;;;15.68;72.43
32197;BME280;18697;42.770;23.400;2022-12-11T11:33:55;93630.41;;;15.65;72.88
32197;BME280;18697;42.770;23.400;2022-12-11T11:36:26;93628.16;;;15.63;72.96
32197;BME280;18697;42.770;23.400;2022-12-11T11:39:03;93632.66;;;15.66;73.74
32197;BME280;18697;42.770;23.400;2022-12-11T11:41:42;93631.38;;;15.67;75.79
32197;BME280;18697;42.770;23.400;2022-12-11T11:44:14;93615.47;;;15.62;76.56
32197;BME280;18697;42.770;23.400;2022-12-11T11:46:44;93614.94;;;15.64;77.92
32197;BME280;18697;42.770;23.400;2022-12-11T11:52:14;93608.31;;;15.54;78.65
32197;BME280;18697;42.770;23.400;2022-12-11T11:57:36;93609.88;;;15.62;79.34
32197;BME280;18697;42.770;23.400;2022-12-11T12:00:29;93613.47;;;15.50;80.51
32197;BME280;18697;42.770;23.400;2022-12-11T12:02:59;93619.03;;;15.29;80.05
32197;BME280;18697;42.770;23.400;2022-12-11T12:05:32;93614.41;;;14.97;80.80
32197;BME280;18697;42.770;23.400;2022-12-11T12:12:54;93623.06;;;14.07;79.09
32197;BME280;18697;42.770;23.400;2022-12-11T12:21:04;93627.47;;;13.25;80.89
32197;BME280;18697;42.770;23.400;2022-12-11T12:26:37;93637.09;;;12.87;80.91
32197;BME280;18697;42.770;23.400;2022-12-11T12:34:44;93652.13;;;12.40;82.17
32197;BME280;18697;42.770;23.400;2022-12-11T12:42:39;93666.53;;;11.60;85.25
32197;BME280;18697;42.770;23.400;2022-12-11T12:47:42;93676.94;;;11.54;87.12
32197;BME280;18697;42.770;23.400;2022-12-11T12:50:21;93674.38;;;11.26;88.00
32197;BME280;18697;42.770;23.400;2022-12-11T12:52:49;93682.56;;;11.13;87.68
32197;BME280;18697;42.770;23.400;2022-12-11T12:57:54;93685.75;;;10.81;88.89
32197;BME280;18697;42.770;23.400;2022-12-11T13:00:40;93672.66;;;10.76;89.25
32197;BME280;18697;42.770;23.400;2022-12-11T13:05:54;93689.75;;;10.34;90.95
32197;BME280;18697;42.770;23.400;2022-12-11T13:08:30;93681.44;;;10.11;91.50
32197;BME280;18697;42.770;23.400;2022-12-11T13:11:04;93693.31;;;10.01;92.83
32197;BME280;18697;42.770;23.400;2022-12-11T13:13:37;93693.81;;;9.99;93.79
32197;BME280;18697;42.770;23.400;2022-12-11T13:18:44;93704.44;;;9.78;93.44
32197;BME280;18697;42.770;23.400;2022-12-11T13:26:36;93707.72;;;9.54;94.17
32197;BME280;18697;42.770;23.400;2022-12-11T13:29:02;93717.56;;;9.44;94.35
32197;BME280;18697;42.770;23.400;2022-12-11T13:31:34;93731.91;;;9.43;94.59
32197;BME280;18697;42.770;23.400;2022-12-11T13:34:14;93738.41;;;9.23;94.62
32197;BME280;18697;42.770;23.400;2022-12-11T13:36:45;93741.44;;;9.19;95.33
32197;BME280;18697;42.770;23.400;2022-12-11T13:39:21;93750.97;;;9.07;94.81
32197;BME280;18697;42.770;23.400;2022-12-11T13:41:51;93738.84;;;8.99;94.63
32197;BME280;18697;42.770;23.400;2022-12-11T13:44:29;93752.69;;;8.94;94.86
32197;BME280;18697;42.770;23.400;2022-12-11T13:46:58;93776.84;;;8.93;94.95
32197;BME280;18697;42.770;23.400;2022-12-11T13:49:28;93780.13;;;8.86;94.85
32197;BME280;18697;42.770;23.400;2022-12-11T13:51:58;93782.06;;;8.74;94.20
32197;BME280;18697;42.770;23.400;2022-12-11T13:54:25;93782.75;;;8.58;94.16
32197;BME280;18697;42.770;23.400;2022-12-11T13:59:40;93784.19;;;8.48;94.87
32197;BME280;18697;42.770;23.400;2022-12-11T14:02:27;93795.28;;;8.53;94.77
32197;BME280;18697;42.770;23.400;2022-12-11T14:04:57;93807.91;;;8.60;94.27
32197;BME280;18697;42.770;23.400;2022-12-11T14:07:32;93797.56;;;8.55;93.21
32197;BME280;18697;42.770;23.400;2022-12-11T14:10:07;93805.34;;;8.51;93.39
32197;BME280;18697;42.770;23.400;2022-12-11T14:12:34;93821.16;;;8.45;93.72
32197;BME280;18697;42.770;23.400;2022-12-11T14:15:02;93818.38;;;8.45;93.62
32197;BME280;18697;42.770;23.400;2022-12-11T14:17:30;93834.91;;;8.34;93.40
32197;BME280;18697;42.770;23.400;2022-12-11T14:20:00;93835.66;;;8.34;93.11
32197;BME280;18697;42.770;23.400;2022-12-11T14:22:28;93846.66;;;8.29;92.98
32197;BME280;18697;42.770;23.400;2022-12-11T14:24:56;93838.09;;;8.27;93.01
32197;BME280;18697;42.770;23.400;2022-12-11T14:27:22;93854.19;;;8.28;93.25
32197;BME280;18697;42.770;23.400;2022-12-11T14:29:49;93861.69;;;8.22;93.53
32197;BME280;18697;42.770;23.400;2022-12-11T14:32:26;93857.53;;;8.01;93.33